^^
Station Historical Data
Daily Summary for May 19, 2017 Units:  English    Metric   Both
« Previous Day
Next Day »
Daily Weekly Monthly Yearly Custom
  High: Low: Average:
Temperature: 89.5 °F 66.9 °F 79.3 °F
Dew Point: 67.5 °F 51.2 °F 63.2 °F
Humidity: 84 % 37 % 60 %
Wind Speed: 9.1 mph 0.0 mph 2.1 mph
Wind Gust: 19.6 mph - -
Wind:- - WSW
Pressure: 30.03 in 29.86 in -
Precipitation: 0.00 in    
Historical Graphs
 
 
Tabular Data for May 19, 2017
Time Temperature Dew Point Pressure Wind Wind Speed Wind Gust Humidity Rainfall Rate (Hourly) solar Conditions
00:02 77.8 °F 66.4 °F 29.90 in SSW 3.6 mph 11.5 mph 68 % 0.00 in 0.0 W/m2 BKN
00:07 77.8 °F 66.4 °F 29.89 in SW 3.9 mph 11.5 mph 68 % 0.00 in 0.0 W/m2 BKN
00:12 77.6 °F 66.2 °F 29.89 in Calm   8.1 mph 68 % 0.00 in 0.0 W/m2 BKN
00:17 77.4 °F 66.4 °F 29.89 in SW 0.1 mph 8.1 mph 69 % 0.00 in 0.0 W/m2 BKN
00:22 77.2 °F 66.2 °F 29.89 in SW 1.4 mph 4.6 mph 69 % 0.00 in 0.0 W/m2 BKN
00:27 77.0 °F 66.0 °F 29.88 in SW 2.1 mph 4.6 mph 69 % 0.00 in 0.0 W/m2 BKN
00:32 76.9 °F 66.4 °F 29.88 in WSW 1.9 mph 4.6 mph 70 % 0.00 in 0.0 W/m2 BKN
00:37 76.9 °F 66.4 °F 29.88 in SW 1.6 mph 5.8 mph 70 % 0.00 in 0.0 W/m2 BKN
00:42 76.7 °F 66.2 °F 29.88 in SW 0.5 mph 8.1 mph 70 % 0.00 in 0.0 W/m2 BKN
00:43 76.7 °F 66.2 °F 29.88 in SW 0.5 mph 8.1 mph 70 % 0.00 in 0.0 W/m2 BKN
00:48 76.6 °F 66.1 °F 29.88 in WSW 0.4 mph 8.1 mph 70 % 0.00 in 0.0 W/m2 BKN
00:53 76.5 °F 66.0 °F 29.88 in SW 2.8 mph 5.8 mph 70 % 0.00 in 0.0 W/m2 BKN
00:58 76.5 °F 66.0 °F 29.88 in West 1.0 mph 6.9 mph 70 % 0.00 in 0.0 W/m2 BKN
01:03 76.4 °F 65.9 °F 29.87 in SW 2.9 mph 8.1 mph 70 % 0.00 in 0.0 W/m2 CLR
01:08 76.2 °F 65.7 °F 29.87 in SW 0.9 mph 8.1 mph 70 % 0.00 in 0.0 W/m2 CLR
01:13 76.2 °F 65.7 °F 29.87 in SW 0.6 mph 9.2 mph 70 % 0.00 in 0.0 W/m2 CLR
01:18 76.1 °F 65.6 °F 29.86 in Calm   9.2 mph 70 % 0.00 in 0.0 W/m2 CLR
01:23 76.1 °F 66.0 °F 29.86 in WSW 0.5 mph 8.1 mph 71 % 0.00 in 0.0 W/m2 CLR
01:28 76.0 °F 65.9 °F 29.86 in SSW 0.6 mph 8.1 mph 71 % 0.00 in 0.0 W/m2 CLR
01:33 75.8 °F 65.7 °F 29.86 in SW 1.2 mph 11.5 mph 71 % 0.00 in 0.0 W/m2 CLR
01:38 75.6 °F 65.5 °F 29.86 in WSW 1.9 mph 11.5 mph 71 % 0.00 in 0.0 W/m2 CLR
01:43 75.4 °F 65.7 °F 29.86 in SW 2.4 mph 8.1 mph 72 % 0.00 in 0.0 W/m2 CLR
01:48 75.2 °F 65.6 °F 29.86 in WSW 0.1 mph 8.1 mph 72 % 0.00 in 0.0 W/m2 CLR
01:53 75.0 °F 65.8 °F 29.86 in SW 0.4 mph 6.9 mph 73 % 0.00 in 0.0 W/m2 CLR
01:58 74.9 °F 65.7 °F 29.86 in SW 2.9 mph 6.9 mph 73 % 0.00 in 0.0 W/m2 CLR
02:03 74.7 °F 65.9 °F 29.86 in Calm   6.9 mph 74 % 0.00 in 0.0 W/m2 CLR
02:08 74.5 °F 65.7 °F 29.86 in WSW 0.2 mph 6.9 mph 74 % 0.00 in 0.0 W/m2 CLR
02:13 74.3 °F 65.5 °F 29.86 in South 1.5 mph 5.8 mph 74 % 0.00 in 0.0 W/m2 CLR
02:18 74.2 °F 65.8 °F 29.87 in SW 0.2 mph 5.8 mph 75 % 0.00 in 0.0 W/m2 CLR
02:23 74.2 °F 65.8 °F 29.87 in SW 1.2 mph 5.8 mph 75 % 0.00 in 0.0 W/m2 CLR
02:28 74.2 °F 65.8 °F 29.87 in WSW 0.4 mph 5.8 mph 75 % 0.00 in 0.0 W/m2 CLR
02:33 74.2 °F 65.8 °F 29.87 in SW 2.5 mph 6.9 mph 75 % 0.00 in 0.0 W/m2 CLR
02:38 74.2 °F 65.8 °F 29.87 in SW 1.2 mph 6.9 mph 75 % 0.00 in 0.0 W/m2 CLR
02:43 74.2 °F 65.8 °F 29.86 in West 0.7 mph 6.9 mph 75 % 0.00 in 0.0 W/m2 CLR
02:48 74.1 °F 65.7 °F 29.87 in WSW 0.6 mph 6.9 mph 75 % 0.00 in 0.0 W/m2 CLR
02:50 74.1 °F 65.7 °F 29.86 in SW 1.0 mph 4.0 mph 75 % 0.00 in 0.0 W/m2 CLR
02:55 73.9 °F 65.5 °F 29.87 in Calm   5.0 mph 75 % 0.00 in 0.0 W/m2 CLR
02:59 73.7 °F 65.3 °F 29.87 in SW 1.4 mph 4.6 mph 75 % 0.00 in 0.0 W/m2 CLR
03:04 73.6 °F 65.6 °F 29.87 in SSW 1.4 mph 4.6 mph 76 % 0.00 in 0.0 W/m2 CLR
03:09 73.5 °F 65.5 °F 29.87 in WSW 0.7 mph 4.6 mph 76 % 0.00 in 0.0 W/m2 CLR
03:14 73.6 °F 65.6 °F 29.87 in WSW 2.2 mph 9.2 mph 76 % 0.00 in 0.0 W/m2 CLR
03:19 73.6 °F 65.6 °F 29.87 in SW 2.0 mph 9.2 mph 76 % 0.00 in 0.0 W/m2 CLR
03:24 73.6 °F 65.2 °F 29.87 in Calm   5.8 mph 75 % 0.00 in 0.0 W/m2 CLR
03:29 73.6 °F 65.2 °F 29.87 in WSW 1.8 mph 8.1 mph 75 % 0.00 in 0.0 W/m2 CLR
03:34 73.7 °F 65.3 °F 29.87 in WSW 0.9 mph 8.1 mph 75 % 0.00 in 0.0 W/m2 CLR
03:39 73.7 °F 65.3 °F 29.87 in WSW 3.3 mph 8.1 mph 75 % 0.00 in 0.0 W/m2 CLR
03:44 73.6 °F 65.2 °F 29.87 in SW 0.4 mph 9.2 mph 75 % 0.00 in 0.0 W/m2 CLR
03:49 73.4 °F 65.4 °F 29.87 in WSW 0.9 mph 9.2 mph 76 % 0.00 in 0.0 W/m2 CLR
03:54 73.2 °F 65.2 °F 29.88 in SW 1.2 mph 6.9 mph 76 % 0.00 in 0.0 W/m2 CLR
03:59 73.0 °F 65.0 °F 29.88 in SSW 2.2 mph 8.1 mph 76 % 0.00 in 0.0 W/m2 CLR
04:04 72.9 °F 65.3 °F 29.88 in SW 2.5 mph 8.1 mph 77 % 0.00 in 0.0 W/m2 CLR
04:09 72.7 °F 65.1 °F 29.88 in WSW 2.6 mph 4.6 mph 77 % 0.00 in 0.0 W/m2 CLR
04:14 72.4 °F 64.8 °F 29.88 in Calm   4.6 mph 77 % 0.00 in 0.0 W/m2 CLR
04:19 72.1 °F 64.9 °F 29.88 in SSW 2.3 mph 4.6 mph 78 % 0.00 in 0.0 W/m2 CLR
04:24 71.7 °F 64.8 °F 29.88 in SSW 0.1 mph 5.8 mph 79 % 0.00 in 0.0 W/m2 CLR
04:29 71.3 °F 64.4 °F 29.88 in Calm   5.8 mph 79 % 0.00 in 0.0 W/m2 CLR
04:34 71.2 °F 64.7 °F 29.89 in Calm   1.2 mph 80 % 0.00 in 0.0 W/m2 CLR
04:39 71.0 °F 64.5 °F 29.89 in Calm   1.2 mph 80 % 0.00 in 0.0 W/m2 CLR
04:44 70.9 °F 64.8 °F 29.89 in Calm     81 % 0.00 in 0.0 W/m2 CLR
04:49 70.9 °F 64.8 °F 29.89 in Calm     81 % 0.00 in 0.0 W/m2 CLR
04:55 70.8 °F 64.7 °F 29.89 in Calm     81 % 0.00 in 0.0 W/m2 CLR
05:00 70.6 °F 64.5 °F 29.90 in Calm     81 % 0.00 in 0.0 W/m2 CLR
05:05 70.5 °F 64.4 °F 29.90 in Calm     81 % 0.00 in 0.0 W/m2 CLR
05:10 70.0 °F 64.2 °F 29.90 in Calm     82 % 0.00 in 0.0 W/m2 CLR
05:15 69.7 °F 64.3 °F 29.90 in Calm     83 % 0.00 in 0.0 W/m2 CLR
05:20 69.6 °F 64.2 °F 29.90 in Calm     83 % 0.00 in 0.0 W/m2 CLR
05:25 69.3 °F 63.9 °F 29.90 in Calm     83 % 0.00 in 0.0 W/m2 CLR
05:30 69.2 °F 64.2 °F 29.90 in Calm     84 % 0.00 in 0.0 W/m2 CLR
05:35 69.0 °F 64.0 °F 29.90 in Calm     84 % 0.00 in 0.0 W/m2 CLR
05:40 69.2 °F 64.2 °F 29.90 in Calm     84 % 0.00 in 0.0 W/m2 CLR
05:45 69.2 °F 64.2 °F 29.90 in Calm     84 % 0.00 in 0.0 W/m2 CLR
05:50 69.1 °F 64.1 °F 29.91 in Calm     84 % 0.00 in 5.0 W/m2 CLR
05:55 69.1 °F 64.1 °F 29.91 in Calm     84 % 0.00 in 7.0 W/m2 CLR
06:00 69.2 °F 64.2 °F 29.91 in SSW 0.2 mph 3.5 mph 84 % 0.00 in 11.0 W/m2 CLR
06:05 69.3 °F 64.3 °F 29.91 in Calm   3.5 mph 84 % 0.00 in 12.0 W/m2 CLR
06:10 69.4 °F 64.4 °F 29.91 in Calm   2.3 mph 84 % 0.00 in 14.0 W/m2 CLR
06:15 69.6 °F 64.5 °F 29.90 in SSW 1.1 mph 4.6 mph 84 % 0.00 in 16.0 W/m2 CLR
06:20 69.7 °F 64.6 °F 29.91 in Calm   4.6 mph 84 % 0.00 in 18.0 W/m2 CLR
06:25 69.8 °F 64.7 °F 29.90 in SSW 0.1 mph 3.5 mph 84 % 0.00 in 19.0 W/m2 CLR
06:30 69.9 °F 64.5 °F 29.91 in Calm   1.2 mph 83 % 0.00 in 21.0 W/m2 CLR
06:35 70.0 °F 64.6 °F 29.91 in Calm   1.2 mph 83 % 0.00 in 23.0 W/m2 CLR
06:40 70.1 °F 64.7 °F 29.91 in Calm   1.2 mph 83 % 0.00 in 25.0 W/m2 CLR
06:45 70.3 °F 64.9 °F 29.91 in Calm   1.2 mph 83 % 0.00 in 26.0 W/m2 CLR
06:50 70.5 °F 65.1 °F 29.92 in Calm   1.2 mph 83 % 0.00 in 28.0 W/m2 CLR
06:55 70.7 °F 64.9 °F 29.92 in Calm   1.2 mph 82 % 0.00 in 28.0 W/m2 CLR
07:00 70.9 °F 65.1 °F 29.92 in SSW 0.5 mph 1.2 mph 82 % 0.00 in 30.0 W/m2 CLR
07:05 71.3 °F 65.5 °F 29.92 in Calm   4.6 mph 82 % 0.00 in 32.0 W/m2 CLR
07:10 71.7 °F 65.6 °F 29.92 in Calm   4.6 mph 81 % 0.00 in 33.0 W/m2 CLR
07:15 72.0 °F 65.5 °F 29.92 in SSW 0.3 mph 4.6 mph 80 % 0.00 in 33.0 W/m2 CLR
07:20 72.4 °F 65.5 °F 29.92 in West 4.0 mph 11.5 mph 79 % 0.00 in 35.0 W/m2 CLR
07:25 72.7 °F 65.4 °F 29.92 in South 3.8 mph 11.5 mph 78 % 0.00 in 35.0 W/m2 CLR
07:30 73.0 °F 65.4 °F 29.92 in WSW 2.4 mph 9.2 mph 77 % 0.00 in 37.0 W/m2 CLR
07:35 73.3 °F 65.7 °F 29.92 in SW 3.5 mph 9.2 mph 77 % 0.00 in 37.0 W/m2 CLR
07:40 73.4 °F 65.7 °F 29.92 in WSW 2.1 mph 9.2 mph 77 % 0.00 in 39.0 W/m2 CLR
07:45 73.6 °F 65.9 °F 29.93 in WSW 3.8 mph 11.5 mph 77 % 0.00 in 40.0 W/m2 CLR
07:50 73.5 °F 65.8 °F 29.93 in West 0.5 mph 11.5 mph 77 % 0.00 in 51.0 W/m2 CLR
07:55 73.7 °F 65.7 °F 29.93 in NW 3.6 mph 11.5 mph 76 % 0.00 in 42.0 W/m2 CLR
08:00 73.9 °F 65.9 °F 29.93 in SSW 5.0 mph 11.5 mph 76 % 0.00 in 44.0 W/m2 CLR
08:05 74.0 °F 65.6 °F 29.93 in WSW 2.5 mph 11.5 mph 75 % 0.00 in 44.0 W/m2 CLR
08:10 74.1 °F 65.7 °F 29.93 in WSW 5.6 mph 11.5 mph 75 % 0.00 in 46.0 W/m2 CLR
08:15 74.5 °F 66.1 °F 29.93 in SW 2.4 mph 11.5 mph 75 % 0.00 in 46.0 W/m2 CLR
08:20 74.9 °F 66.1 °F 29.93 in SW 3.7 mph 11.5 mph 74 % 0.00 in 47.0 W/m2 CLR
08:26 75.2 °F 66.3 °F 29.92 in West 4.2 mph 13.8 mph 74 % 0.00 in 54.0 W/m2 CLR
08:31 75.5 °F 66.2 °F 29.92 in WSW 0.5 mph 13.8 mph 73 % 0.00 in 49.0 W/m2 CLR
08:36 75.7 °F 66.0 °F 29.92 in WSW 6.3 mph 12.7 mph 72 % 0.00 in 51.0 W/m2 CLR
08:41 75.9 °F 66.2 °F 29.92 in WSW 7.2 mph 12.7 mph 72 % 0.00 in 53.0 W/m2 CLR
08:46 76.2 °F 66.1 °F 29.92 in WSW 2.2 mph 12.7 mph 71 % 0.00 in 53.0 W/m2 CLR
08:51 76.8 °F 66.3 °F 29.92 in WSW 3.6 mph 12.7 mph 70 % 0.00 in 54.0 W/m2 CLR
08:56 76.9 °F 66.0 °F 29.92 in WSW 3.0 mph 10.4 mph 69 % 0.00 in 58.0 W/m2 CLR
09:01 77.2 °F 66.2 °F 29.92 in WSW 1.6 mph 15.0 mph 69 % 0.00 in 109.0 W/m2 CLR
09:06 77.8 °F 66.4 °F 29.92 in West 0.8 mph 15.0 mph 68 % 0.00 in 570.0 W/m2 CLR
09:11 78.1 °F 66.7 °F 29.92 in West 1.0 mph 11.5 mph 68 % 0.00 in 585.0 W/m2 CLR
09:16 78.6 °F 66.7 °F 29.92 in SW 0.3 mph 9.2 mph 67 % 0.00 in 599.0 W/m2 CLR
09:21 78.5 °F 66.6 °F 29.92 in West 4.1 mph 9.2 mph 67 % 0.00 in 612.0 W/m2 CLR
09:26 79.0 °F 67.5 °F 29.92 in West 2.5 mph 9.2 mph 68 % 0.00 in 626.0 W/m2 CLR
09:31 79.2 °F 66.9 °F 29.92 in WSW 4.4 mph 11.5 mph 66 % 0.00 in 640.0 W/m2 CLR
09:36 79.0 °F 67.1 °F 29.92 in WSW 3.5 mph 11.5 mph 67 % 0.00 in 650.0 W/m2 CLR
09:41 79.6 °F 67.2 °F 29.92 in West 3.1 mph 11.5 mph 66 % 0.00 in 670.0 W/m2 CLR
09:46 79.7 °F 66.9 °F 29.92 in WSW 6.0 mph 11.5 mph 65 % 0.00 in 684.0 W/m2 CLR
09:51 79.8 °F 67.0 °F 29.92 in NW 6.5 mph 12.7 mph 65 % 0.00 in 694.0 W/m2 CLR
09:56 80.3 °F 66.6 °F 29.91 in West 6.1 mph 12.7 mph 63 % 0.00 in 708.0 W/m2 CLR
10:01 80.7 °F 66.9 °F 29.91 in WSW 3.8 mph 11.5 mph 63 % 0.00 in 712.0 W/m2 CLR
10:06 81.2 °F 67.4 °F 29.92 in West 4.3 mph 11.5 mph 63 % 0.00 in 726.0 W/m2 CLR
10:11 81.6 °F 67.3 °F 29.91 in West 6.2 mph 11.5 mph 62 % 0.00 in 737.0 W/m2 CLR
10:16 81.1 °F 66.8 °F 29.91 in West 3.7 mph 11.5 mph 62 % 0.00 in 766.0 W/m2 CLR
10:21 81.5 °F 67.2 °F 29.92 in SW 0.2 mph 11.5 mph 62 % 0.00 in 773.0 W/m2 CLR
10:26 82.1 °F 67.3 °F 29.92 in West 0.2 mph 11.5 mph 61 % 0.00 in 788.0 W/m2 CLR
10:31 82.3 °F 66.5 °F 29.92 in WSW 6.3 mph 11.5 mph 59 % 0.00 in 786.0 W/m2 CLR
10:36 82.3 °F 66.5 °F 29.92 in West 6.3 mph 11.5 mph 59 % 0.00 in 810.0 W/m2 CLR
10:41 83.0 °F 66.7 °F 29.92 in SW 7.7 mph 11.5 mph 58 % 0.00 in 812.0 W/m2 CLR
10:44 82.9 °F 66.6 °F 29.92 in West 5.6 mph 11.5 mph 58 % 0.00 in 828.0 W/m2 CLR
10:49 83.2 °F 66.9 °F 29.92 in West 5.0 mph 13.8 mph 58 % 0.00 in 838.0 W/m2 CLR
10:54 83.8 °F 66.9 °F 29.92 in WSW 2.3 mph 13.8 mph 57 % 0.00 in 844.0 W/m2 CLR
10:59 83.5 °F 66.7 °F 29.92 in SW 7.7 mph 15.0 mph 57 % 0.00 in 863.0 W/m2 CLR
11:04 83.4 °F 66.6 °F 29.92 in WNW 3.2 mph 15.0 mph 57 % 0.00 in 847.0 W/m2 CLR
11:09 83.8 °F 65.9 °F 29.92 in West 4.7 mph 15.0 mph 55 % 0.00 in 870.0 W/m2 CLR
11:14 84.0 °F 66.1 °F 29.92 in WSW 4.8 mph 19.6 mph 55 % 0.00 in 882.0 W/m2 CLR
11:19 84.8 °F 66.3 °F 29.92 in West 3.9 mph 19.6 mph 54 % 0.00 in 893.0 W/m2 CLR
11:24 83.9 °F 66.0 °F 29.92 in SSW 3.3 mph 12.7 mph 55 % 0.00 in 891.0 W/m2 CLR
11:29 84.4 °F 65.9 °F 29.92 in SW 3.8 mph 12.7 mph 54 % 0.00 in 895.0 W/m2 CLR
11:34 84.7 °F 65.7 °F 29.92 in WSW 4.9 mph 17.3 mph 53 % 0.00 in 918.0 W/m2 CLR
11:39 84.8 °F 65.8 °F 29.92 in West 4.7 mph 17.3 mph 53 % 0.00 in 912.0 W/m2 CLR
11:45 85.6 °F 66.0 °F 29.92 in WSW 1.3 mph 13.8 mph 52 % 0.00 in 937.0 W/m2 CLR
11:50 85.2 °F 65.6 °F 29.92 in SSW 2.7 mph 12.7 mph 52 % 0.00 in 958.0 W/m2 CLR
11:55 84.8 °F 65.2 °F 29.91 in WSW 7.0 mph 12.0 mph 52 % 0.00 in 951.0 W/m2 CLR
12:00 85.0 °F 65.4 °F 29.91 in SW 5.9 mph 11.5 mph 52 % 0.00 in 912.0 W/m2 CLR
12:05 85.4 °F 65.2 °F 29.91 in WNW 4.4 mph 19.6 mph 51 % 0.00 in 921.0 W/m2 FEW
12:10 85.8 °F 65.6 °F 29.91 in West 8.0 mph 17.0 mph 51 % 0.00 in 963.0 W/m2 FEW
12:15 86.3 °F 65.5 °F 29.91 in WSW 1.7 mph 19.6 mph 50 % 0.00 in 983.0 W/m2 FEW
12:20 85.9 °F 65.7 °F 29.91 in West 5.4 mph 16.1 mph 51 % 0.00 in 990.0 W/m2 FEW
12:25 86.0 °F 65.2 °F 29.91 in West 0.2 mph 15.0 mph 50 % 0.00 in 970.0 W/m2 FEW
12:30 86.3 °F 65.5 °F 29.91 in WNW 1.8 mph 18.4 mph 50 % 0.00 in 202.0 W/m2 FEW
12:35 86.2 °F 65.4 °F 29.90 in NW 5.0 mph 18.4 mph 50 % 0.00 in 984.0 W/m2 FEW
12:40 86.8 °F 65.3 °F 29.90 in SSW 4.7 mph 13.8 mph 49 % 0.00 in 197.0 W/m2 FEW
12:46 85.5 °F 64.7 °F 29.90 in West 0.7 mph 16.1 mph 50 % 0.00 in 234.0 W/m2 FEW
12:50 86.6 °F 65.7 °F 29.90 in West 1.9 mph 16.1 mph 50 % 0.00 in 969.0 W/m2 FEW
12:56 87.2 °F 65.1 °F 29.90 in SW 1.7 mph 11.5 mph 48 % 0.00 in 984.0 W/m2 FEW
13:01 87.4 °F 64.7 °F 29.90 in SW 5.6 mph 15.0 mph 47 % 0.00 in 960.0 W/m2 SCT
13:06 87.3 °F 64.6 °F 29.90 in SSW 4.1 mph 15.0 mph 47 % 0.00 in 1013.0 W/m2 SCT
13:11 86.9 °F 64.8 °F 29.90 in West 5.0 mph 15.0 mph 48 % 0.00 in 1013.0 W/m2 SCT
13:16 86.9 °F 64.2 °F 29.90 in WSW 0.5 mph 11.5 mph 47 % 0.00 in 311.0 W/m2 SCT
13:21 87.0 °F 64.3 °F 29.90 in SW 1.3 mph 18.4 mph 47 % 0.00 in 984.0 W/m2 SCT
13:26 88.0 °F 64.0 °F 29.90 in WSW 3.4 mph 18.4 mph 45 % 0.00 in 1004.0 W/m2 SCT
13:31 87.8 °F 63.8 °F 29.90 in West 4.1 mph 12.7 mph 45 % 0.00 in 981.0 W/m2 SCT
13:36 88.2 °F 64.2 °F 29.90 in NW 4.3 mph 12.7 mph 45 % 0.00 in 988.0 W/m2 SCT
13:41 88.2 °F 64.2 °F 29.89 in WNW 5.0 mph 12.7 mph 45 % 0.00 in 986.0 W/m2 SCT
13:46 87.5 °F 64.2 °F 29.89 in SW 5.2 mph 17.3 mph 46 % 0.00 in 932.0 W/m2 SCT
13:51 88.0 °F 64.0 °F 29.89 in WSW 1.8 mph 17.3 mph 45 % 0.00 in 962.0 W/m2 SCT
13:56 88.4 °F 64.4 °F 29.89 in SW 4.3 mph 15.0 mph 45 % 0.00 in 962.0 W/m2 SCT
14:01 88.4 °F 63.7 °F 29.89 in SW 1.2 mph 15.0 mph 44 % 0.00 in 325.0 W/m2 SCT
14:06 88.7 °F 62.7 °F 29.89 in WNW 8.2 mph 18.4 mph 42 % 0.00 in 997.0 W/m2 SCT
14:11 88.0 °F 63.4 °F 29.89 in WSW 3.6 mph 18.4 mph 44 % 0.00 in 865.0 W/m2 SCT
14:16 87.7 °F 63.7 °F 29.89 in West 4.6 mph 17.3 mph 45 % 0.00 in 257.0 W/m2 SCT
14:21 87.8 °F 64.4 °F 29.88 in NW 4.7 mph 16.1 mph 46 % 0.00 in 320.0 W/m2 SCT
14:26 88.8 °F 64.1 °F 29.89 in NNW 1.3 mph 13.8 mph 44 % 0.00 in 246.0 W/m2 SCT
14:31 87.8 °F 63.8 °F 29.88 in NW 8.6 mph 18.4 mph 45 % 0.00 in 1009.0 W/m2 SCT
14:36 88.1 °F 64.1 °F 29.88 in NW 6.9 mph 18.4 mph 45 % 0.00 in 940.0 W/m2 SCT
14:41 88.6 °F 63.9 °F 29.88 in WNW 6.8 mph 18.4 mph 44 % 0.00 in 251.0 W/m2 SCT
14:46 88.6 °F 64.5 °F 29.88 in NW 6.0 mph 12.7 mph 45 % 0.00 in 921.0 W/m2 SCT
14:51 88.6 °F 64.5 °F 29.88 in NW 7.6 mph 15.0 mph 45 % 0.00 in 311.0 W/m2 SCT
14:56 88.8 °F 64.7 °F 29.88 in West 0.7 mph 15.0 mph 45 % 0.00 in 765.0 W/m2 SCT
15:01 89.1 °F 64.3 °F 29.88 in WNW 2.4 mph 15.0 mph 44 % 0.00 in 877.0 W/m2 FEW
15:06 89.4 °F 64.0 °F 29.88 in NW 8.2 mph 13.8 mph 43 % 0.00 in 860.0 W/m2 FEW
15:11 89.4 °F 64.6 °F 29.88 in WSW 1.1 mph 13.8 mph 44 % 0.00 in 833.0 W/m2 FEW
15:16 88.8 °F 63.4 °F 29.88 in WNW 5.7 mph 13.8 mph 43 % 0.00 in 160.0 W/m2 FEW
15:21 87.3 °F 64.0 °F 29.88 in SW 2.8 mph 16.1 mph 46 % 0.00 in 192.0 W/m2 FEW
15:26 87.6 °F 63.6 °F 29.87 in NW 5.1 mph 16.1 mph 45 % 0.00 in 775.0 W/m2 FEW
15:32 89.0 °F 64.3 °F 29.87 in West 1.2 mph 16.1 mph 44 % 0.00 in 751.0 W/m2 FEW
15:37 88.7 °F 63.3 °F 29.87 in West 3.0 mph 16.1 mph 43 % 0.00 in 742.0 W/m2 FEW
15:42 89.2 °F 63.8 °F 29.87 in WSW 2.1 mph 13.8 mph 43 % 0.00 in 740.0 W/m2 FEW
15:47 88.8 °F 62.7 °F 29.87 in West 2.3 mph 13.8 mph 42 % 0.00 in 724.0 W/m2 FEW
15:52 88.6 °F 62.6 °F 29.87 in WSW 3.6 mph 15.0 mph 42 % 0.00 in 708.0 W/m2 FEW
15:57 89.0 °F 62.9 °F 29.86 in NNW 1.6 mph 17.3 mph 42 % 0.00 in 687.0 W/m2 FEW
16:02 89.0 °F 62.2 °F 29.86 in SW 5.2 mph 17.3 mph 41 % 0.00 in 680.0 W/m2 CLR
16:07 89.3 °F 63.2 °F 29.86 in SW 0.8 mph 13.8 mph 42 % 0.00 in 673.0 W/m2 CLR
16:12 89.4 °F 62.6 °F 29.86 in NW 7.4 mph 13.8 mph 41 % 0.00 in 654.0 W/m2 CLR
16:17 89.5 °F 62.0 °F 29.86 in WSW 2.1 mph 12.7 mph 40 % 0.00 in 650.0 W/m2 CLR
16:22 89.2 °F 62.4 °F 29.86 in North 1.4 mph 12.7 mph 41 % 0.00 in 624.0 W/m2 CLR
16:27 89.2 °F 61.0 °F 29.86 in West 2.5 mph 15.0 mph 39 % 0.00 in 613.0 W/m2 CLR
16:32 89.4 °F 61.9 °F 29.86 in West 4.3 mph 15.0 mph 40 % 0.00 in 592.0 W/m2 CLR
16:37 89.0 °F 60.8 °F 29.86 in WSW 9.1 mph 17.3 mph 39 % 0.00 in 573.0 W/m2 CLR
16:42 89.0 °F 61.5 °F 29.86 in SW 2.1 mph 17.3 mph 40 % 0.00 in 561.0 W/m2 CLR
16:47 89.0 °F 61.5 °F 29.86 in West 1.3 mph 17.3 mph 40 % 0.00 in 550.0 W/m2 CLR
16:52 89.0 °F 60.8 °F 29.86 in SW 7.2 mph 13.8 mph 39 % 0.00 in 534.0 W/m2 CLR
16:57 89.1 °F 60.9 °F 29.86 in NNW 2.0 mph 13.8 mph 39 % 0.00 in 520.0 W/m2 CLR
17:02 89.2 °F 61.7 °F 29.86 in WSW 3.0 mph 13.8 mph 40 % 0.00 in 506.0 W/m2 CLR
17:07 88.9 °F 60.7 °F 29.86 in WSW 1.6 mph 13.8 mph 39 % 0.00 in 499.0 W/m2 CLR
17:12 89.4 °F 61.2 °F 29.86 in WNW 3.6 mph 12.7 mph 39 % 0.00 in 489.0 W/m2 CLR
17:17 89.5 °F 61.3 °F 29.86 in SW 1.7 mph 11.5 mph 39 % 0.00 in 471.0 W/m2 CLR
17:22 89.5 °F 61.3 °F 29.86 in WSW 2.4 mph 11.5 mph 39 % 0.00 in 415.0 W/m2 CLR
17:27 89.3 °F 59.6 °F 29.86 in NNW 5.2 mph 12.7 mph 37 % 0.00 in 425.0 W/m2 CLR
17:32 89.3 °F 61.1 °F 29.86 in WSW 0.7 mph 12.7 mph 39 % 0.00 in 401.0 W/m2 CLR
17:37 89.5 °F 59.8 °F 29.86 in West 0.9 mph 11.5 mph 37 % 0.00 in 403.0 W/m2 CLR
17:42 89.3 °F 59.6 °F 29.86 in West 3.9 mph 11.5 mph 37 % 0.00 in 381.0 W/m2 CLR
17:47 89.1 °F 60.2 °F 29.87 in West 5.1 mph 13.8 mph 38 % 0.00 in 346.0 W/m2 CLR
17:52 89.2 °F 60.3 °F 29.87 in WSW 0.2 mph 13.8 mph 38 % 0.00 in 350.0 W/m2 CLR
17:57 89.1 °F 60.2 °F 29.87 in SSW 1.3 mph 13.8 mph 38 % 0.00 in 322.0 W/m2 CLR
18:02 88.8 °F 59.9 °F 29.87 in NW 1.7 mph 11.5 mph 38 % 0.00 in 265.0 W/m2 SCT
18:08 88.8 °F 59.9 °F 29.87 in West 0.2 mph 10.4 mph 38 % 0.00 in 285.0 W/m2 SCT
18:13 88.8 °F 59.9 °F 29.87 in NW 0.7 mph 11.5 mph 38 % 0.00 in 271.0 W/m2 SCT
18:18 88.7 °F 60.6 °F 29.87 in Calm   11.5 mph 39 % 0.00 in 258.0 W/m2 SCT
18:23 88.6 °F 59.7 °F 29.87 in WNW 1.8 mph 9.2 mph 38 % 0.00 in 84.0 W/m2 SCT
18:28 88.2 °F 60.1 °F 29.87 in West 2.0 mph 10.4 mph 39 % 0.00 in 105.0 W/m2 SCT
18:33 87.7 °F 60.4 °F 29.87 in WNW 0.3 mph 10.4 mph 40 % 0.00 in 200.0 W/m2 SCT
18:38 87.8 °F 60.5 °F 29.87 in West 2.2 mph 6.9 mph 40 % 0.00 in 186.0 W/m2 SCT
18:43 87.9 °F 60.6 °F 29.87 in Calm   6.9 mph 40 % 0.00 in 156.0 W/m2 SCT
18:48 87.8 °F 59.8 °F 29.87 in West 0.3 mph 8.1 mph 39 % 0.00 in 146.0 W/m2 SCT
18:53 87.7 °F 60.4 °F 29.87 in Calm   8.1 mph 40 % 0.00 in 111.0 W/m2 SCT
18:58 87.5 °F 60.2 °F 29.87 in Calm   3.5 mph 40 % 0.00 in 132.0 W/m2 SCT
19:03 87.3 °F 60.7 °F 29.87 in West 0.1 mph 3.5 mph 41 % 0.00 in 104.0 W/m2 CLR
19:08 87.1 °F 61.2 °F 29.88 in West 0.4 mph 2.3 mph 42 % 0.00 in 69.0 W/m2 CLR
19:13 86.6 °F 60.8 °F 29.88 in Calm   3.5 mph 42 % 0.00 in 53.0 W/m2 CLR
19:18 86.3 °F 59.8 °F 29.87 in Calm   3.5 mph 41 % 0.00 in 44.0 W/m2 CLR
19:23 85.9 °F 60.1 °F 29.88 in Calm   3.5 mph 42 % 0.00 in 40.0 W/m2 CLR
19:28 85.7 °F 60.0 °F 29.88 in Calm   3.5 mph 42 % 0.00 in 37.0 W/m2 CLR
19:33 85.4 °F 60.4 °F 29.88 in Calm   3.5 mph 43 % 0.00 in 35.0 W/m2 CLR
19:38 85.4 °F 60.4 °F 29.89 in Calm     43 % 0.00 in 30.0 W/m2 CLR
19:43 84.9 °F 60.6 °F 29.89 in Calm     44 % 0.00 in 26.0 W/m2 CLR
19:48 84.5 °F 60.2 °F 29.89 in Calm     44 % 0.00 in 25.0 W/m2 CLR
19:53 84.5 °F 60.8 °F 29.89 in Calm     45 % 0.00 in 19.0 W/m2 CLR
19:58 84.0 °F 60.4 °F 29.89 in Calm     45 % 0.00 in 16.0 W/m2 CLR
20:03 83.4 °F 60.4 °F 29.90 in North 0.7 mph   46 % 0.00 in 11.0 W/m2 CLR
20:08 82.8 °F 60.5 °F 29.90 in NNW 3.6 mph 8.1 mph 47 % 0.00 in 5.0 W/m2 CLR
20:13 82.2 °F 60.6 °F 29.91 in NNW 3.2 mph 9.2 mph 48 % 0.00 in 0.0 W/m2 CLR
20:18 81.6 °F 61.2 °F 29.91 in NNW 1.7 mph 9.2 mph 50 % 0.00 in 0.0 W/m2 CLR
20:23 81.0 °F 61.2 °F 29.92 in North 0.9 mph 11.5 mph 51 % 0.00 in 0.0 W/m2 CLR
20:28 80.4 °F 60.6 °F 29.92 in Calm   11.5 mph 51 % 0.00 in 0.0 W/m2 CLR
20:34 79.9 °F 60.7 °F 29.93 in North 0.5 mph 8.1 mph 52 % 0.00 in 0.0 W/m2 CLR
20:39 79.4 °F 60.8 °F 29.94 in North 1.5 mph 3.5 mph 53 % 0.00 in 0.0 W/m2 CLR
20:44 78.9 °F 60.3 °F 29.94 in Calm   3.5 mph 53 % 0.00 in 0.0 W/m2 CLR
20:49 78.5 °F 60.5 °F 29.95 in Calm   3.5 mph 54 % 0.00 in 0.0 W/m2 CLR
20:54 78.2 °F 60.2 °F 29.95 in North 0.2 mph 3.5 mph 54 % 0.00 in 0.0 W/m2 CLR
20:59 77.8 °F 59.8 °F 29.95 in Calm   3.5 mph 54 % 0.00 in 0.0 W/m2 CLR
21:04 77.4 °F 60.0 °F 29.95 in Calm   3.5 mph 55 % 0.00 in 0.0 W/m2 CLR
21:09 76.9 °F 59.5 °F 29.95 in NNE 0.1 mph 3.5 mph 55 % 0.00 in 0.0 W/m2 CLR
21:14 76.5 °F 59.6 °F 29.96 in NNE 1.9 mph 3.5 mph 56 % 0.00 in 0.0 W/m2 CLR
21:19 76.2 °F 58.9 °F 29.96 in North 1.4 mph 4.6 mph 55 % 0.00 in 0.0 W/m2 CLR
21:24 75.8 °F 58.5 °F 29.97 in North 0.2 mph 4.6 mph 55 % 0.00 in 0.0 W/m2 CLR
21:29 75.4 °F 58.6 °F 29.98 in NNE 1.0 mph 4.6 mph 56 % 0.00 in 0.0 W/m2 CLR
21:34 75.2 °F 58.9 °F 29.98 in NNE 0.3 mph 3.5 mph 57 % 0.00 in 0.0 W/m2 CLR
21:39 75.0 °F 58.7 °F 29.98 in Calm   3.5 mph 57 % 0.00 in 0.0 W/m2 CLR
21:44 74.6 °F 58.4 °F 29.98 in NNE 2.2 mph 4.6 mph 57 % 0.00 in 0.0 W/m2 CLR
21:49 74.3 °F 58.1 °F 29.99 in NNE 2.3 mph 4.6 mph 57 % 0.00 in 0.0 W/m2 CLR
21:54 74.0 °F 57.8 °F 29.99 in NNE 0.6 mph 4.6 mph 57 % 0.00 in 0.0 W/m2 CLR
21:59 73.7 °F 57.5 °F 29.99 in NNE 0.5 mph 3.5 mph 57 % 0.00 in 0.0 W/m2 CLR
22:04 73.3 °F 57.6 °F 29.99 in Calm   3.5 mph 58 % 0.00 in 0.0 W/m2 CLR
22:09 72.9 °F 57.3 °F 29.99 in NNE 0.2 mph 4.6 mph 58 % 0.00 in 0.0 W/m2 CLR
22:14 72.6 °F 57.0 °F 30.00 in North 1.4 mph 4.6 mph 58 % 0.00 in 0.0 W/m2 CLR
22:19 72.3 °F 57.2 °F 29.99 in NW 1.2 mph 3.5 mph 59 % 0.00 in 0.0 W/m2 CLR
22:24 71.9 °F 56.8 °F 30.00 in NNW 1.1 mph 4.6 mph 59 % 0.00 in 0.0 W/m2 CLR
22:29 71.7 °F 56.6 °F 30.00 in North 0.4 mph 8.1 mph 59 % 0.00 in 0.0 W/m2 CLR
22:34 71.5 °F 55.9 °F 30.01 in North 1.6 mph 8.1 mph 58 % 0.00 in 0.0 W/m2 CLR
22:39 71.2 °F 55.7 °F 30.01 in North 1.2 mph 4.6 mph 58 % 0.00 in 0.0 W/m2 CLR
22:44 70.8 °F 55.3 °F 30.00 in NNE 1.6 mph 4.6 mph 58 % 0.00 in 0.0 W/m2 CLR
22:49 70.4 °F 54.9 °F 30.01 in North 2.2 mph 4.6 mph 58 % 0.00 in 0.0 W/m2 CLR
22:54 70.2 °F 54.7 °F 30.01 in NNW 1.7 mph 9.2 mph 58 % 0.00 in 0.0 W/m2 CLR
22:59 70.0 °F 54.5 °F 30.01 in North 1.6 mph 9.2 mph 58 % 0.00 in 0.0 W/m2 CLR
23:02 69.9 °F 54.4 °F 30.01 in Calm   9.2 mph 58 % 0.00 in 0.0 W/m2 CLR
23:07 69.7 °F 54.3 °F 30.02 in Calm   5.8 mph 58 % 0.00 in 0.0 W/m2 CLR
23:12 69.5 °F 54.1 °F 30.02 in NNE 0.3 mph 3.5 mph 58 % 0.00 in 0.0 W/m2 CLR
23:17 69.3 °F 53.9 °F 30.02 in North 1.9 mph 4.6 mph 58 % 0.00 in 0.0 W/m2 CLR
23:22 69.0 °F 54.1 °F 30.03 in NNW 1.3 mph 5.8 mph 59 % 0.00 in 0.0 W/m2 CLR
23:27 68.6 °F 53.2 °F 30.02 in Calm   5.8 mph 58 % 0.00 in 0.0 W/m2 CLR
23:32 68.4 °F 53.5 °F 30.03 in NNE 0.4 mph 5.8 mph 59 % 0.00 in 0.0 W/m2 CLR
23:37 68.1 °F 53.2 °F 30.03 in NNE 0.5 mph 3.5 mph 59 % 0.00 in 0.0 W/m2 CLR
23:42 67.8 °F 52.5 °F 30.03 in Calm   3.5 mph 58 % 0.00 in 0.0 W/m2 CLR
23:48 67.5 °F 52.2 °F 30.03 in North 1.2 mph 3.5 mph 58 % 0.00 in 0.0 W/m2 CLR
23:53 67.2 °F 51.9 °F 30.03 in NW 0.6 mph 4.6 mph 58 % 0.00 in 0.0 W/m2 CLR
23:58 66.9 °F 51.2 °F 30.03 in NNW 1.1 mph 9.2 mph 57 % 0.00 in 0.0 W/m2 CLR
Air Products Campus Weather
Compliments of Weather Underground - 3.5 mb